sensor_id;sensor_type;location;lat;lon;timestamp;pressure;altitude;pressure_sealevel;temperature
71897;BMP280;59767;51.344;12.362;2022-10-17T00:01:20;100935.88;;;16.07
71897;BMP280;59767;51.344;12.362;2022-10-17T00:04:24;100932.38;;;16.08
71897;BMP280;59767;51.344;12.362;2022-10-17T00:07:29;100938.09;;;16.10
71897;BMP280;59767;51.344;12.362;2022-10-17T00:10:34;100940.03;;;16.08
71897;BMP280;59767;51.344;12.362;2022-10-17T00:13:39;100934.50;;;16.04
71897;BMP280;59767;51.344;12.362;2022-10-17T00:16:43;100942.16;;;16.04
71897;BMP280;59767;51.344;12.362;2022-10-17T00:19:47;100938.00;;;16.03
71897;BMP280;59767;51.344;12.362;2022-10-17T00:22:51;100949.47;;;16.07
71897;BMP280;59767;51.344;12.362;2022-10-17T00:25:59;100944.19;;;16.09
71897;BMP280;59767;51.344;12.362;2022-10-17T00:29:03;100951.31;;;16.13
71897;BMP280;59767;51.344;12.362;2022-10-17T00:32:07;100944.88;;;16.17
71897;BMP280;59767;51.344;12.362;2022-10-17T00:35:12;100946.91;;;16.22
71897;BMP280;59767;51.344;12.362;2022-10-17T00:38:15;100952.81;;;16.22
71897;BMP280;59767;51.344;12.362;2022-10-17T00:41:22;100957.31;;;16.20
71897;BMP280;59767;51.344;12.362;2022-10-17T00:47:34;100954.31;;;16.17
71897;BMP280;59767;51.344;12.362;2022-10-17T00:50:42;100958.09;;;16.21
71897;BMP280;59767;51.344;12.362;2022-10-17T00:53:48;100955.13;;;16.17
71897;BMP280;59767;51.344;12.362;2022-10-17T00:56:52;100953.69;;;16.15
71897;BMP280;59767;51.344;12.362;2022-10-17T00:59:58;100951.47;;;16.12
71897;BMP280;59767;51.344;12.362;2022-10-17T01:03:03;100949.28;;;16.09
71897;BMP280;59767;51.344;12.362;2022-10-17T01:06:08;100952.81;;;16.08
71897;BMP280;59767;51.344;12.362;2022-10-17T01:09:12;100949.84;;;16.04
71897;BMP280;59767;51.344;12.362;2022-10-17T01:12:27;100943.09;;;16.03
71897;BMP280;59767;51.344;12.362;2022-10-17T01:16:28;100938.16;;;16.02
71897;BMP280;59767;51.344;12.362;2022-10-17T01:19:33;100954.38;;;15.94
71897;BMP280;59767;51.344;12.362;2022-10-17T01:22:46;100958.16;;;15.84
71897;BMP280;59767;51.344;12.362;2022-10-17T01:33:05;100948.09;;;15.68
71897;BMP280;59767;51.344;12.362;2022-10-17T01:36:19;100950.03;;;15.66
71897;BMP280;59767;51.344;12.362;2022-10-17T01:39:39;100939.81;;;15.66
71897;BMP280;59767;51.344;12.362;2022-10-17T01:46:12;100936.72;;;15.70
71897;BMP280;59767;51.344;12.362;2022-10-17T01:49:22;100941.06;;;15.70
71897;BMP280;59767;51.344;12.362;2022-10-17T01:52:34;100923.78;;;15.72
71897;BMP280;59767;51.344;12.362;2022-10-17T01:55:42;100921.22;;;15.72
71897;BMP280;59767;51.344;12.362;2022-10-17T01:58:55;100925.38;;;15.73
71897;BMP280;59767;51.344;12.362;2022-10-17T02:02:00;100923.78;;;15.72
71897;BMP280;59767;51.344;12.362;2022-10-17T02:05:05;100922.53;;;15.68
71897;BMP280;59767;51.344;12.362;2022-10-17T02:08:11;100919.19;;;15.67
71897;BMP280;59767;51.344;12.362;2022-10-17T02:14:24;100916.47;;;15.83
71897;BMP280;59767;51.344;12.362;2022-10-17T02:21:07;100920.13;;;15.89
71897;BMP280;59767;51.344;12.362;2022-10-17T02:24:27;100916.13;;;15.86
71897;BMP280;59767;51.344;12.362;2022-10-17T02:27:48;100920.13;;;15.89
71897;BMP280;59767;51.344;12.362;2022-10-17T02:31:00;100916.66;;;15.96
71897;BMP280;59767;51.344;12.362;2022-10-17T02:34:12;100909.75;;;16.11
71897;BMP280;59767;51.344;12.362;2022-10-17T02:37:22;100915.78;;;16.18
71897;BMP280;59767;51.344;12.362;2022-10-17T02:40:29;100909.16;;;16.24
71897;BMP280;59767;51.344;12.362;2022-10-17T02:43:35;100914.34;;;16.30
71897;BMP280;59767;51.344;12.362;2022-10-17T02:46:41;100902.63;;;16.36
71897;BMP280;59767;51.344;12.362;2022-10-17T02:49:52;100911.50;;;16.40
71897;BMP280;59767;51.344;12.362;2022-10-17T02:53:01;100918.56;;;16.38
71897;BMP280;59767;51.344;12.362;2022-10-17T02:56:13;100919.72;;;16.35
71897;BMP280;59767;51.344;12.362;2022-10-17T02:59:21;100914.94;;;16.32
71897;BMP280;59767;51.344;12.362;2022-10-17T03:02:25;100911.97;;;16.29
71897;BMP280;59767;51.344;12.362;2022-10-17T03:05:30;100914.53;;;16.29
71897;BMP280;59767;51.344;12.362;2022-10-17T03:08:33;100909.28;;;16.37
71897;BMP280;59767;51.344;12.362;2022-10-17T03:11:38;100919.53;;;16.37
71897;BMP280;59767;51.344;12.362;2022-10-17T03:14:42;100916.19;;;16.36
71897;BMP280;59767;51.344;12.362;2022-10-17T03:17:46;100909.66;;;16.34
71897;BMP280;59767;51.344;12.362;2022-10-17T03:20:50;100915.75;;;16.33
71897;BMP280;59767;51.344;12.362;2022-10-17T03:23:54;100923.00;;;16.29
71897;BMP280;59767;51.344;12.362;2022-10-17T03:26:58;100914.88;;;16.26
71897;BMP280;59767;51.344;12.362;2022-10-17T03:30:03;100914.28;;;16.24
71897;BMP280;59767;51.344;12.362;2022-10-17T03:33:07;100929.94;;;16.21
71897;BMP280;59767;51.344;12.362;2022-10-17T03:36:15;100932.50;;;16.21
71897;BMP280;59767;51.344;12.362;2022-10-17T03:39:20;100932.88;;;16.18
71897;BMP280;59767;51.344;12.362;2022-10-17T03:42:24;100926.00;;;16.18
71897;BMP280;59767;51.344;12.362;2022-10-17T03:45:28;100936.56;;;16.15
71897;BMP280;59767;51.344;12.362;2022-10-17T03:48:32;100935.81;;;16.15
71897;BMP280;59767;51.344;12.362;2022-10-17T03:51:37;100936.66;;;16.22
71897;BMP280;59767;51.344;12.362;2022-10-17T03:54:41;100936.06;;;16.20
71897;BMP280;59767;51.344;12.362;2022-10-17T03:57:45;100930.66;;;16.29
71897;BMP280;59767;51.344;12.362;2022-10-17T04:00:48;100939.16;;;16.30
71897;BMP280;59767;51.344;12.362;2022-10-17T04:03:54;100935.31;;;16.26
71897;BMP280;59767;51.344;12.362;2022-10-17T04:06:59;100936.94;;;16.27
71897;BMP280;59767;51.344;12.362;2022-10-17T04:10:04;100934.38;;;16.27
71897;BMP280;59767;51.344;12.362;2022-10-17T04:13:08;100931.56;;;16.22
71897;BMP280;59767;51.344;12.362;2022-10-17T04:16:16;100942.94;;;16.19
71897;BMP280;59767;51.344;12.362;2022-10-17T04:19:20;100951.69;;;16.25
71897;BMP280;59767;51.344;12.362;2022-10-17T04:22:24;100954.69;;;16.28
71897;BMP280;59767;51.344;12.362;2022-10-17T04:25:28;100940.44;;;16.26
71897;BMP280;59767;51.344;12.362;2022-10-17T04:28:37;100940.03;;;16.22
71897;BMP280;59767;51.344;12.362;2022-10-17T04:31:46;100948.50;;;16.23
71897;BMP280;59767;51.344;12.362;2022-10-17T04:34:50;100944.72;;;16.19
71897;BMP280;59767;51.344;12.362;2022-10-17T04:37:54;100945.44;;;16.13
71897;BMP280;59767;51.344;12.362;2022-10-17T04:40:59;100946.03;;;16.15
71897;BMP280;59767;51.344;12.362;2022-10-17T04:44:05;100947.72;;;16.08
71897;BMP280;59767;51.344;12.362;2022-10-17T04:47:09;100952.47;;;16.11
71897;BMP280;59767;51.344;12.362;2022-10-17T04:50:13;100947.06;;;16.06
71897;BMP280;59767;51.344;12.362;2022-10-17T04:53:17;100949.63;;;16.06
71897;BMP280;59767;51.344;12.362;2022-10-17T04:56:22;100947.72;;;16.08
71897;BMP280;59767;51.344;12.362;2022-10-17T04:59:27;100948.50;;;16.08
71897;BMP280;59767;51.344;12.362;2022-10-17T05:02:31;100948.31;;;16.10
71897;BMP280;59767;51.344;12.362;2022-10-17T05:05:39;100946.63;;;16.02
71897;BMP280;59767;51.344;12.362;2022-10-17T05:08:44;100960.56;;;16.00
71897;BMP280;59767;51.344;12.362;2022-10-17T05:11:48;100949.72;;;15.98
71897;BMP280;59767;51.344;12.362;2022-10-17T05:14:53;100954.38;;;15.94
71897;BMP280;59767;51.344;12.362;2022-10-17T05:17:57;100962.41;;;15.91
71897;BMP280;59767;51.344;12.362;2022-10-17T05:21:02;100965.66;;;15.85
71897;BMP280;59767;51.344;12.362;2022-10-17T05:24:08;100967.25;;;15.86
71897;BMP280;59767;51.344;12.362;2022-10-17T05:27:13;100969.44;;;15.89
71897;BMP280;59767;51.344;12.362;2022-10-17T05:30:17;100971.59;;;15.86
71897;BMP280;59767;51.344;12.362;2022-10-17T05:33:22;100967.63;;;15.83
71897;BMP280;59767;51.344;12.362;2022-10-17T05:36:26;100979.34;;;15.78
71897;BMP280;59767;51.344;12.362;2022-10-17T05:39:30;100979.34;;;15.78
71897;BMP280;59767;51.344;12.362;2022-10-17T05:42:33;100979.13;;;15.79
71897;BMP280;59767;51.344;12.362;2022-10-17T05:45:37;100977.03;;;15.83
71897;BMP280;59767;51.344;12.362;2022-10-17T05:48:41;100982.59;;;15.86
71897;BMP280;59767;51.344;12.362;2022-10-17T05:51:45;100973.50;;;15.84
71897;BMP280;59767;51.344;12.362;2022-10-17T05:54:49;100984.78;;;15.89
71897;BMP280;59767;51.344;12.362;2022-10-17T05:57:53;100982.59;;;15.86
71897;BMP280;59767;51.344;12.362;2022-10-17T06:00:59;100979.88;;;15.88
71897;BMP280;59767;51.344;12.362;2022-10-17T06:04:03;100973.97;;;15.87
71897;BMP280;59767;51.344;12.362;2022-10-17T06:07:07;100987.16;;;15.91
71897;BMP280;59767;51.344;12.362;2022-10-17T06:10:11;100990.00;;;15.96
71897;BMP280;59767;51.344;12.362;2022-10-17T06:13:20;100987.13;;;15.99
71897;BMP280;59767;51.344;12.362;2022-10-17T06:16:24;100992.66;;;16.02
71897;BMP280;59767;51.344;12.362;2022-10-17T06:19:29;100997.78;;;16.02
71897;BMP280;59767;51.344;12.362;2022-10-17T06:22:33;101005.91;;;16.06
71897;BMP280;59767;51.344;12.362;2022-10-17T06:25:37;101009.69;;;16.10
71897;BMP280;59767;51.344;12.362;2022-10-17T06:28:41;101011.38;;;16.17
71897;BMP280;59767;51.344;12.362;2022-10-17T06:31:45;101030.97;;;16.25
71897;BMP280;59767;51.344;12.362;2022-10-17T06:34:49;101022.88;;;16.36
71897;BMP280;59767;51.344;12.362;2022-10-17T06:37:53;101021.19;;;16.43
71897;BMP280;59767;51.344;12.362;2022-10-17T06:41:05;101028.16;;;16.49
71897;BMP280;59767;51.344;12.362;2022-10-17T06:44:11;101024.91;;;16.55
71897;BMP280;59767;51.344;12.362;2022-10-17T06:47:16;101034.75;;;16.58
71897;BMP280;59767;51.344;12.362;2022-10-17T06:50:23;101026.38;;;16.64
71897;BMP280;59767;51.344;12.362;2022-10-17T06:53:32;101032.91;;;16.66
71897;BMP280;59767;51.344;12.362;2022-10-17T06:56:36;101032.38;;;16.71
71897;BMP280;59767;51.344;12.362;2022-10-17T06:59:40;101037.50;;;16.71
71897;BMP280;59767;51.344;12.362;2022-10-17T07:02:44;101038.72;;;16.75
71897;BMP280;59767;51.344;12.362;2022-10-17T07:05:52;101045.72;;;16.81
71897;BMP280;59767;51.344;12.362;2022-10-17T07:08:56;101051.41;;;16.83
71897;BMP280;59767;51.344;12.362;2022-10-17T07:12:01;101045.06;;;16.93
71897;BMP280;59767;51.344;12.362;2022-10-17T07:15:05;101044.50;;;16.98
71897;BMP280;59767;51.344;12.362;2022-10-17T07:18:09;101045.97;;;17.07
71897;BMP280;59767;51.344;12.362;2022-10-17T07:21:13;101055.69;;;17.11
71897;BMP280;59767;51.344;12.362;2022-10-17T07:24:17;101057.94;;;17.21
71897;BMP280;59767;51.344;12.362;2022-10-17T07:27:22;101061.81;;;17.31
71897;BMP280;59767;51.344;12.362;2022-10-17T07:30:26;101064.63;;;17.36
71897;BMP280;59767;51.344;12.362;2022-10-17T07:33:30;101066.72;;;17.47
71897;BMP280;59767;51.344;12.362;2022-10-17T07:36:34;101070.13;;;17.54
71897;BMP280;59767;51.344;12.362;2022-10-17T07:39:38;101077.88;;;17.61
71897;BMP280;59767;51.344;12.362;2022-10-17T07:42:42;101080.13;;;17.70
71897;BMP280;59767;51.344;12.362;2022-10-17T07:45:46;101082.25;;;17.88
71897;BMP280;59767;51.344;12.362;2022-10-17T07:48:50;101077.81;;;17.96
71897;BMP280;59767;51.344;12.362;2022-10-17T07:51:54;101087.84;;;17.98
71897;BMP280;59767;51.344;12.362;2022-10-17T07:54:58;101079.66;;;18.09
71897;BMP280;59767;51.344;12.362;2022-10-17T07:58:03;101083.81;;;18.10
71897;BMP280;59767;51.344;12.362;2022-10-17T08:01:08;101072.97;;;18.14
71897;BMP280;59767;51.344;12.362;2022-10-17T08:04:19;101073.78;;;18.15
71897;BMP280;59767;51.344;12.362;2022-10-17T08:07:23;101082.28;;;18.15
71897;BMP280;59767;51.344;12.362;2022-10-17T08:10:32;101077.31;;;18.14
71897;BMP280;59767;51.344;12.362;2022-10-17T08:13:36;101073.78;;;18.15
71897;BMP280;59767;51.344;12.362;2022-10-17T08:16:40;101082.47;;;18.14
71897;BMP280;59767;51.344;12.362;2022-10-17T08:19:45;101076.09;;;18.10
71897;BMP280;59767;51.344;12.362;2022-10-17T08:22:54;101084.03;;;18.15
71897;BMP280;59767;51.344;12.362;2022-10-17T08:26:02;101089.19;;;18.21
71897;BMP280;59767;51.344;12.362;2022-10-17T08:29:12;101093.41;;;18.29
71897;BMP280;59767;51.344;12.362;2022-10-17T08:32:22;101084.94;;;18.35
71897;BMP280;59767;51.344;12.362;2022-10-17T08:35:27;101095.63;;;18.38
71897;BMP280;59767;51.344;12.362;2022-10-17T08:38:33;101092.69;;;18.48
71897;BMP280;59767;51.344;12.362;2022-10-17T08:42:01;101100.13;;;18.64
71897;BMP280;59767;51.344;12.362;2022-10-17T08:48:31;101090.00;;;19.03
71897;BMP280;59767;51.344;12.362;2022-10-17T08:51:43;101077.63;;;19.32
71897;BMP280;59767;51.344;12.362;2022-10-17T08:54:50;101079.59;;;19.49
71897;BMP280;59767;51.344;12.362;2022-10-17T08:57:54;101085.13;;;19.66
71897;BMP280;59767;51.344;12.362;2022-10-17T09:04:53;101066.91;;;20.00
71897;BMP280;59767;51.344;12.362;2022-10-17T09:11:27;101091.25;;;19.97
71897;BMP280;59767;51.344;12.362;2022-10-17T09:18:12;101078.00;;;19.87
71897;BMP280;59767;51.344;12.362;2022-10-17T09:21:46;101063.16;;;19.89
71897;BMP280;59767;51.344;12.362;2022-10-17T09:24:57;101057.81;;;19.91
71897;BMP280;59767;51.344;12.362;2022-10-17T09:28:03;101063.34;;;19.88
71897;BMP280;59767;51.344;12.362;2022-10-17T09:31:21;101059.97;;;20.00
71897;BMP280;59767;51.344;12.362;2022-10-17T09:34:27;101068.84;;;20.11
71897;BMP280;59767;51.344;12.362;2022-10-17T09:37:32;101075.94;;;20.22
71897;BMP280;59767;51.344;12.362;2022-10-17T09:40:36;101080.47;;;20.33
71897;BMP280;59767;51.344;12.362;2022-10-17T09:43:40;101082.44;;;20.37
71897;BMP280;59767;51.344;12.362;2022-10-17T09:47:03;101084.22;;;20.50
71897;BMP280;59767;51.344;12.362;2022-10-17T09:50:25;101085.34;;;20.60
71897;BMP280;59767;51.344;12.362;2022-10-17T09:53:33;101085.06;;;20.75
71897;BMP280;59767;51.344;12.362;2022-10-17T09:56:57;101081.38;;;20.95
71897;BMP280;59767;51.344;12.362;2022-10-17T10:00:05;101082.84;;;21.16
71897;BMP280;59767;51.344;12.362;2022-10-17T10:06:20;101077.28;;;21.43
71897;BMP280;59767;51.344;12.362;2022-10-17T10:09:27;101086.31;;;21.52
71897;BMP280;59767;51.344;12.362;2022-10-17T10:12:34;101083.75;;;21.70
71897;BMP280;59767;51.344;12.362;2022-10-17T10:15:41;101077.91;;;21.81
71897;BMP280;59767;51.344;12.362;2022-10-17T10:18:46;101079.22;;;21.90
71897;BMP280;59767;51.344;12.362;2022-10-17T10:21:56;101081.00;;;22.08
71897;BMP280;59767;51.344;12.362;2022-10-17T10:25:14;101084.59;;;22.25
71897;BMP280;59767;51.344;12.362;2022-10-17T10:28:18;101081.13;;;22.49
71897;BMP280;59767;51.344;12.362;2022-10-17T10:31:31;101076.84;;;22.54
71897;BMP280;59767;51.344;12.362;2022-10-17T10:34:36;101065.97;;;22.52
71897;BMP280;59767;51.344;12.362;2022-10-17T10:37:43;101061.47;;;22.48
71897;BMP280;59767;51.344;12.362;2022-10-17T10:40:54;101060.63;;;22.65
71897;BMP280;59767;51.344;12.362;2022-10-17T10:43:59;101053.81;;;22.52
71897;BMP280;59767;51.344;12.362;2022-10-17T10:47:18;101047.34;;;22.62
71897;BMP280;59767;51.344;12.362;2022-10-17T10:50:35;101049.78;;;22.74
71897;BMP280;59767;51.344;12.362;2022-10-17T10:56:51;101046.50;;;22.79
71897;BMP280;59767;51.344;12.362;2022-10-17T11:00:05;101046.94;;;22.76
71897;BMP280;59767;51.344;12.362;2022-10-17T11:03:18;101042.91;;;22.80
71897;BMP280;59767;51.344;12.362;2022-10-17T11:06:30;101047.63;;;22.83
71897;BMP280;59767;51.344;12.362;2022-10-17T11:10:11;101040.47;;;22.96
71897;BMP280;59767;51.344;12.362;2022-10-17T11:13:21;101044.88;;;23.07
71897;BMP280;59767;51.344;12.362;2022-10-17T11:16:34;101048.94;;;23.15
71897;BMP280;59767;51.344;12.362;2022-10-17T11:19:44;101051.06;;;23.18
71897;BMP280;59767;51.344;12.362;2022-10-17T11:23:00;101050.47;;;23.16
71897;BMP280;59767;51.344;12.362;2022-10-17T11:26:16;101049.69;;;23.15
71897;BMP280;59767;51.344;12.362;2022-10-17T11:29:31;101047.03;;;23.22
71897;BMP280;59767;51.344;12.362;2022-10-17T11:32:41;101051.97;;;23.23
71897;BMP280;59767;51.344;12.362;2022-10-17T11:35:49;101044.50;;;23.27
71897;BMP280;59767;51.344;12.362;2022-10-17T11:38:58;101040.94;;;23.28
71897;BMP280;59767;51.344;12.362;2022-10-17T11:45:58;101038.13;;;23.29
71897;BMP280;59767;51.344;12.362;2022-10-17T11:52:32;101034.84;;;23.45
71897;BMP280;59767;51.344;12.362;2022-10-17T11:55:59;101033.03;;;23.46
71897;BMP280;59767;51.344;12.362;2022-10-17T12:12:46;101023.44;;;23.69
71897;BMP280;59767;51.344;12.362;2022-10-17T12:15:50;101025.47;;;23.67
71897;BMP280;59767;51.344;12.362;2022-10-17T12:25:29;101016.16;;;23.66
71897;BMP280;59767;51.344;12.362;2022-10-17T12:31:42;101003.84;;;23.62
71897;BMP280;59767;51.344;12.362;2022-10-17T12:34:54;101001.28;;;23.62
71897;BMP280;59767;51.344;12.362;2022-10-17T12:38:02;100999.25;;;23.64
71897;BMP280;59767;51.344;12.362;2022-10-17T12:41:06;101002.06;;;23.74
71897;BMP280;59767;51.344;12.362;2022-10-17T12:47:34;101003.00;;;23.96
71897;BMP280;59767;51.344;12.362;2022-10-17T12:51:11;101003.47;;;23.93
71897;BMP280;59767;51.344;12.362;2022-10-17T12:54:45;100996.88;;;24.02
71897;BMP280;59767;51.344;12.362;2022-10-17T12:58:05;100997.25;;;23.94
71897;BMP280;59767;51.344;12.362;2022-10-17T13:01:26;100989.88;;;23.86
71897;BMP280;59767;51.344;12.362;2022-10-17T13:04:30;100996.88;;;23.85
71897;BMP280;59767;51.344;12.362;2022-10-17T13:07:35;100994.56;;;23.89
71897;BMP280;59767;51.344;12.362;2022-10-17T13:10:39;100998.06;;;23.83
71897;BMP280;59767;51.344;12.362;2022-10-17T13:13:48;101003.72;;;23.80
71897;BMP280;59767;51.344;12.362;2022-10-17T13:16:58;100987.06;;;23.76
71897;BMP280;59767;51.344;12.362;2022-10-17T13:20:03;100985.50;;;23.75
71897;BMP280;59767;51.344;12.362;2022-10-17T13:23:21;100987.97;;;23.70
71897;BMP280;59767;51.344;12.362;2022-10-17T13:26:27;100992.38;;;23.69
71897;BMP280;59767;51.344;12.362;2022-10-17T13:29:31;100982.34;;;23.73
71897;BMP280;59767;51.344;12.362;2022-10-17T13:32:37;100987.97;;;23.70
71897;BMP280;59767;51.344;12.362;2022-10-17T13:35:42;100992.38;;;23.69
71897;BMP280;59767;51.344;12.362;2022-10-17T13:39:07;100992.47;;;23.74
71897;BMP280;59767;51.344;12.362;2022-10-17T13:42:25;100994.88;;;23.64
71897;BMP280;59767;51.344;12.362;2022-10-17T13:45:32;100990.59;;;23.58
71897;BMP280;59767;51.344;12.362;2022-10-17T13:48:36;100993.50;;;23.62
71897;BMP280;59767;51.344;12.362;2022-10-17T13:51:49;100991.16;;;23.60
71897;BMP280;59767;51.344;12.362;2022-10-17T13:54:54;100991.84;;;23.56
71897;BMP280;59767;51.344;12.362;2022-10-17T13:58:15;100994.09;;;23.52
71897;BMP280;59767;51.344;12.362;2022-10-17T14:01:20;100999.53;;;23.51
71897;BMP280;59767;51.344;12.362;2022-10-17T14:04:25;100994.00;;;23.47
71897;BMP280;59767;51.344;12.362;2022-10-17T14:07:51;100999.31;;;23.41
71897;BMP280;59767;51.344;12.362;2022-10-17T14:11:28;100999.97;;;23.36
71897;BMP280;59767;51.344;12.362;2022-10-17T14:14:33;100994.56;;;23.38
71897;BMP280;59767;51.344;12.362;2022-10-17T14:18:02;101003.00;;;23.33
71897;BMP280;59767;51.344;12.362;2022-10-17T14:21:18;100993.44;;;23.34
71897;BMP280;59767;51.344;12.362;2022-10-17T14:24:43;100995.03;;;23.46
71897;BMP280;59767;51.344;12.362;2022-10-17T14:31:24;100992.25;;;23.76
71897;BMP280;59767;51.344;12.362;2022-10-17T14:34:36;101000.91;;;23.81
71897;BMP280;59767;51.344;12.362;2022-10-17T14:37:45;100999.63;;;23.84
71897;BMP280;59767;51.344;12.362;2022-10-17T14:41:12;100998.72;;;23.90
71897;BMP280;59767;51.344;12.362;2022-10-17T14:44:37;100994.84;;;23.76
71897;BMP280;59767;51.344;12.362;2022-10-17T14:47:41;100992.81;;;23.78
71897;BMP280;59767;51.344;12.362;2022-10-17T14:51:10;100999.25;;;23.64
71897;BMP280;59767;51.344;12.362;2022-10-17T14:54:22;101002.19;;;23.56
71897;BMP280;59767;51.344;12.362;2022-10-17T14:57:39;101004.69;;;23.51
71897;BMP280;59767;51.344;12.362;2022-10-17T15:00:44;101007.50;;;23.49
71897;BMP280;59767;51.344;12.362;2022-10-17T15:03:48;101019.31;;;23.45
71897;BMP280;59767;51.344;12.362;2022-10-17T15:06:53;101011.69;;;23.39
71897;BMP280;59767;51.344;12.362;2022-10-17T15:09:57;101018.22;;;23.30
71897;BMP280;59767;51.344;12.362;2022-10-17T15:13:02;101017.53;;;23.23
71897;BMP280;59767;51.344;12.362;2022-10-17T15:16:30;101016.31;;;23.14
71897;BMP280;59767;51.344;12.362;2022-10-17T15:19:35;101019.69;;;23.03
71897;BMP280;59767;51.344;12.362;2022-10-17T15:22:39;101022.81;;;22.93
71897;BMP280;59767;51.344;12.362;2022-10-17T15:25:43;101011.22;;;22.84
71897;BMP280;59767;51.344;12.362;2022-10-17T15:28:47;101008.16;;;22.76
71897;BMP280;59767;51.344;12.362;2022-10-17T15:31:52;101016.78;;;22.70
71897;BMP280;59767;51.344;12.362;2022-10-17T15:34:56;101017.09;;;22.62
71897;BMP280;59767;51.344;12.362;2022-10-17T15:38:00;101010.69;;;22.53
71897;BMP280;59767;51.344;12.362;2022-10-17T15:41:05;101016.94;;;22.46
71897;BMP280;59767;51.344;12.362;2022-10-17T15:44:09;101015.47;;;22.38
71897;BMP280;59767;51.344;12.362;2022-10-17T15:47:21;101007.00;;;22.31
71897;BMP280;59767;51.344;12.362;2022-10-17T15:50:26;101015.06;;;22.23
71897;BMP280;59767;51.344;12.362;2022-10-17T15:53:32;101007.84;;;22.14
71897;BMP280;59767;51.344;12.362;2022-10-17T15:56:39;101022.81;;;22.05
71897;BMP280;59767;51.344;12.362;2022-10-17T15:59:44;101022.78;;;21.94
71897;BMP280;59767;51.344;12.362;2022-10-17T16:02:50;101028.88;;;21.81
71897;BMP280;59767;51.344;12.362;2022-10-17T16:05:54;101026.44;;;21.68
71897;BMP280;59767;51.344;12.362;2022-10-17T16:08:58;101029.13;;;21.55
71897;BMP280;59767;51.344;12.362;2022-10-17T16:12:09;101028.25;;;21.43
71897;BMP280;59767;51.344;12.362;2022-10-17T16:18:21;101023.06;;;21.25
71897;BMP280;59767;51.344;12.362;2022-10-17T16:21:28;101015.38;;;21.19
71897;BMP280;59767;51.344;12.362;2022-10-17T16:24:34;101028.13;;;21.14
71897;BMP280;59767;51.344;12.362;2022-10-17T16:27:38;101030.91;;;21.12
71897;BMP280;59767;51.344;12.362;2022-10-17T16:30:42;101044.22;;;21.09
71897;BMP280;59767;51.344;12.362;2022-10-17T16:33:50;101052.78;;;21.03
71897;BMP280;59767;51.344;12.362;2022-10-17T16:36:54;101059.56;;;20.91
71897;BMP280;59767;51.344;12.362;2022-10-17T16:39:58;101056.09;;;20.79
71897;BMP280;59767;51.344;12.362;2022-10-17T16:43:03;101059.34;;;20.68
71897;BMP280;59767;51.344;12.362;2022-10-17T16:46:06;101058.97;;;20.58
71897;BMP280;59767;51.344;12.362;2022-10-17T16:49:10;101069.50;;;20.50
71897;BMP280;59767;51.344;12.362;2022-10-17T16:52:15;101064.38;;;20.44
71897;BMP280;59767;51.344;12.362;2022-10-17T16:55:19;101068.56;;;20.38
71897;BMP280;59767;51.344;12.362;2022-10-17T16:58:24;101071.97;;;20.32
71897;BMP280;59767;51.344;12.362;2022-10-17T17:01:30;101068.22;;;20.28
71897;BMP280;59767;51.344;12.362;2022-10-17T17:04:34;101068.03;;;20.23
71897;BMP280;59767;51.344;12.362;2022-10-17T17:07:39;101064.28;;;20.19
71897;BMP280;59767;51.344;12.362;2022-10-17T17:10:44;101071.81;;;20.14
71897;BMP280;59767;51.344;12.362;2022-10-17T17:13:49;101069.84;;;20.10
71897;BMP280;59767;51.344;12.362;2022-10-17T17:16:53;101072.66;;;20.08
71897;BMP280;59767;51.344;12.362;2022-10-17T17:19:57;101068.47;;;20.07
71897;BMP280;59767;51.344;12.362;2022-10-17T17:23:02;101084.69;;;20.01
71897;BMP280;59767;51.344;12.362;2022-10-17T17:26:09;101087.69;;;19.98
71897;BMP280;59767;51.344;12.362;2022-10-17T17:29:13;101090.06;;;19.93
71897;BMP280;59767;51.344;12.362;2022-10-17T17:32:17;101097.56;;;19.88
71897;BMP280;59767;51.344;12.362;2022-10-17T17:35:21;101099.59;;;19.80
71897;BMP280;59767;51.344;12.362;2022-10-17T17:38:30;101097.56;;;19.75
71897;BMP280;59767;51.344;12.362;2022-10-17T17:41:34;101085.75;;;19.74
71897;BMP280;59767;51.344;12.362;2022-10-17T17:44:39;101097.56;;;19.75
71897;BMP280;59767;51.344;12.362;2022-10-17T17:47:43;101095.22;;;19.74
71897;BMP280;59767;51.344;12.362;2022-10-17T17:50:47;101096.41;;;19.71
71897;BMP280;59767;51.344;12.362;2022-10-17T17:53:52;101105.53;;;19.67
71897;BMP280;59767;51.344;12.362;2022-10-17T17:56:56;101095.25;;;19.61
71897;BMP280;59767;51.344;12.362;2022-10-17T18:00:00;101098.56;;;19.55
71897;BMP280;59767;51.344;12.362;2022-10-17T18:03:04;101112.63;;;19.52
71897;BMP280;59767;51.344;12.362;2022-10-17T18:06:08;101121.53;;;19.44
71897;BMP280;59767;51.344;12.362;2022-10-17T18:09:12;101112.63;;;19.40
71897;BMP280;59767;51.344;12.362;2022-10-17T18:12:17;101107.44;;;19.33
71897;BMP280;59767;51.344;12.362;2022-10-17T18:15:21;101105.91;;;19.32
71897;BMP280;59767;51.344;12.362;2022-10-17T18:18:26;101103.91;;;19.28
71897;BMP280;59767;51.344;12.362;2022-10-17T18:21:30;101114.19;;;19.28
71897;BMP280;59767;51.344;12.362;2022-10-17T18:24:35;101114.56;;;19.25
71897;BMP280;59767;51.344;12.362;2022-10-17T18:27:38;101118.50;;;19.21
71897;BMP280;59767;51.344;12.362;2022-10-17T18:30:43;101130.75;;;19.19
71897;BMP280;59767;51.344;12.362;2022-10-17T18:33:49;101133.69;;;19.16
71897;BMP280;59767;51.344;12.362;2022-10-17T18:36:53;101132.50;;;19.12
71897;BMP280;59767;51.344;12.362;2022-10-17T18:39:57;101130.75;;;19.06
71897;BMP280;59767;51.344;12.362;2022-10-17T18:43:02;101143.16;;;19.02
71897;BMP280;59767;51.344;12.362;2022-10-17T18:46:09;101144.50;;;18.98
71897;BMP280;59767;51.344;12.362;2022-10-17T18:49:18;101141.56;;;18.95
71897;BMP280;59767;51.344;12.362;2022-10-17T18:52:23;101138.59;;;18.91